sensor_id;sensor_type;location;lat;lon;timestamp;P1;durP1;ratioP1;P2;durP2;ratioP2
73585;SDS011;61865;50.232;18.614;2022-12-16T00:01:07;62.55;;;32.13;;
73585;SDS011;61865;50.232;18.614;2022-12-16T00:03:31;76.63;;;32.85;;
73585;SDS011;61865;50.232;18.614;2022-12-16T00:05:53;66.72;;;32.92;;
73585;SDS011;61865;50.232;18.614;2022-12-16T00:08:15;60.33;;;31.63;;
73585;SDS011;61865;50.232;18.614;2022-12-16T00:10:40;62.63;;;31.80;;
73585;SDS011;61865;50.232;18.614;2022-12-16T00:13:16;67.30;;;30.95;;
73585;SDS011;61865;50.232;18.614;2022-12-16T00:15:38;63.90;;;32.28;;
73585;SDS011;61865;50.232;18.614;2022-12-16T00:18:01;68.13;;;31.73;;
73585;SDS011;61865;50.232;18.614;2022-12-16T00:20:23;70.72;;;31.35;;
73585;SDS011;61865;50.232;18.614;2022-12-16T00:22:45;73.72;;;34.15;;
73585;SDS011;61865;50.232;18.614;2022-12-16T00:25:07;71.40;;;32.42;;
73585;SDS011;61865;50.232;18.614;2022-12-16T00:27:29;66.05;;;31.73;;
73585;SDS011;61865;50.232;18.614;2022-12-16T00:29:51;63.25;;;30.67;;
73585;SDS011;61865;50.232;18.614;2022-12-16T00:32:13;72.18;;;32.05;;
73585;SDS011;61865;50.232;18.614;2022-12-16T00:34:36;68.57;;;32.38;;
73585;SDS011;61865;50.232;18.614;2022-12-16T00:36:58;64.25;;;32.97;;
73585;SDS011;61865;50.232;18.614;2022-12-16T00:39:20;67.53;;;32.65;;
73585;SDS011;61865;50.232;18.614;2022-12-16T00:41:42;66.43;;;32.63;;
73585;SDS011;61865;50.232;18.614;2022-12-16T00:44:06;69.20;;;30.83;;
73585;SDS011;61865;50.232;18.614;2022-12-16T00:46:29;75.47;;;31.20;;
73585;SDS011;61865;50.232;18.614;2022-12-16T00:48:51;62.40;;;32.72;;
73585;SDS011;61865;50.232;18.614;2022-12-16T00:51:14;61.75;;;31.05;;
73585;SDS011;61865;50.232;18.614;2022-12-16T00:53:36;67.57;;;31.40;;
73585;SDS011;61865;50.232;18.614;2022-12-16T00:56:02;64.13;;;30.17;;
73585;SDS011;61865;50.232;18.614;2022-12-16T00:58:25;62.15;;;30.88;;
73585;SDS011;61865;50.232;18.614;2022-12-16T01:00:47;67.20;;;30.60;;
73585;SDS011;61865;50.232;18.614;2022-12-16T01:03:11;59.95;;;29.85;;
73585;SDS011;61865;50.232;18.614;2022-12-16T01:05:33;62.15;;;27.90;;
73585;SDS011;61865;50.232;18.614;2022-12-16T01:08:00;54.83;;;27.73;;
73585;SDS011;61865;50.232;18.614;2022-12-16T01:10:21;58.17;;;29.98;;
73585;SDS011;61865;50.232;18.614;2022-12-16T01:12:45;52.17;;;27.50;;
73585;SDS011;61865;50.232;18.614;2022-12-16T01:15:07;58.63;;;28.83;;
73585;SDS011;61865;50.232;18.614;2022-12-16T01:17:31;57.13;;;28.00;;
73585;SDS011;61865;50.232;18.614;2022-12-16T01:19:54;56.03;;;27.60;;
73585;SDS011;61865;50.232;18.614;2022-12-16T01:22:16;52.05;;;26.90;;
73585;SDS011;61865;50.232;18.614;2022-12-16T01:24:39;59.67;;;27.90;;
73585;SDS011;61865;50.232;18.614;2022-12-16T01:27:01;51.95;;;25.92;;
73585;SDS011;61865;50.232;18.614;2022-12-16T01:29:23;44.58;;;23.05;;
73585;SDS011;61865;50.232;18.614;2022-12-16T01:31:44;48.15;;;25.80;;
73585;SDS011;61865;50.232;18.614;2022-12-16T01:34:07;54.38;;;25.63;;
73585;SDS011;61865;50.232;18.614;2022-12-16T01:36:29;46.22;;;24.45;;
73585;SDS011;61865;50.232;18.614;2022-12-16T01:38:51;52.22;;;24.85;;
73585;SDS011;61865;50.232;18.614;2022-12-16T01:41:15;46.42;;;24.05;;
73585;SDS011;61865;50.232;18.614;2022-12-16T01:43:38;50.88;;;23.42;;
73585;SDS011;61865;50.232;18.614;2022-12-16T01:46:02;52.70;;;24.85;;
73585;SDS011;61865;50.232;18.614;2022-12-16T01:48:31;39.25;;;22.83;;
73585;SDS011;61865;50.232;18.614;2022-12-16T01:51:05;52.60;;;24.73;;
73585;SDS011;61865;50.232;18.614;2022-12-16T01:53:30;49.20;;;22.35;;
73585;SDS011;61865;50.232;18.614;2022-12-16T01:55:53;46.13;;;22.15;;
73585;SDS011;61865;50.232;18.614;2022-12-16T01:58:19;54.30;;;23.58;;
73585;SDS011;61865;50.232;18.614;2022-12-16T02:00:43;50.22;;;23.65;;
73585;SDS011;61865;50.232;18.614;2022-12-16T02:03:05;47.50;;;23.13;;
73585;SDS011;61865;50.232;18.614;2022-12-16T02:05:28;48.35;;;24.38;;
73585;SDS011;61865;50.232;18.614;2022-12-16T02:07:52;53.13;;;24.58;;
73585;SDS011;61865;50.232;18.614;2022-12-16T02:10:20;38.70;;;21.52;;
73585;SDS011;61865;50.232;18.614;2022-12-16T02:12:50;47.22;;;23.65;;
73585;SDS011;61865;50.232;18.614;2022-12-16T02:15:25;55.00;;;25.15;;
73585;SDS011;61865;50.232;18.614;2022-12-16T02:17:58;49.28;;;24.65;;
73585;SDS011;61865;50.232;18.614;2022-12-16T02:23:42;52.03;;;25.02;;
73585;SDS011;61865;50.232;18.614;2022-12-16T02:29:46;55.50;;;25.73;;
73585;SDS011;61865;50.232;18.614;2022-12-16T02:32:25;51.83;;;25.27;;
73585;SDS011;61865;50.232;18.614;2022-12-16T02:34:54;49.00;;;24.45;;
73585;SDS011;61865;50.232;18.614;2022-12-16T02:37:23;48.60;;;23.05;;
73585;SDS011;61865;50.232;18.614;2022-12-16T02:39:58;49.67;;;26.27;;
73585;SDS011;61865;50.232;18.614;2022-12-16T02:42:24;58.13;;;25.50;;
73585;SDS011;61865;50.232;18.614;2022-12-16T02:44:52;57.25;;;26.23;;
73585;SDS011;61865;50.232;18.614;2022-12-16T02:47:17;53.97;;;25.02;;
73585;SDS011;61865;50.232;18.614;2022-12-16T02:49:45;51.60;;;25.63;;
73585;SDS011;61865;50.232;18.614;2022-12-16T02:54:33;50.33;;;25.02;;
73585;SDS011;61865;50.232;18.614;2022-12-16T02:56:57;57.80;;;26.05;;
73585;SDS011;61865;50.232;18.614;2022-12-16T02:59:26;48.57;;;24.93;;
73585;SDS011;61865;50.232;18.614;2022-12-16T03:01:58;47.22;;;26.13;;
73585;SDS011;61865;50.232;18.614;2022-12-16T03:04:25;54.53;;;24.55;;
73585;SDS011;61865;50.232;18.614;2022-12-16T03:06:53;59.78;;;27.80;;
73585;SDS011;61865;50.232;18.614;2022-12-16T03:09:18;55.17;;;27.58;;
73585;SDS011;61865;50.232;18.614;2022-12-16T03:11:44;51.78;;;25.77;;
73585;SDS011;61865;50.232;18.614;2022-12-16T03:14:08;58.97;;;27.35;;
73585;SDS011;61865;50.232;18.614;2022-12-16T03:16:33;60.30;;;27.20;;
73585;SDS011;61865;50.232;18.614;2022-12-16T03:18:55;57.00;;;25.70;;
73585;SDS011;61865;50.232;18.614;2022-12-16T03:21:21;58.58;;;25.35;;
73585;SDS011;61865;50.232;18.614;2022-12-16T03:23:49;54.55;;;26.45;;
73585;SDS011;61865;50.232;18.614;2022-12-16T03:26:14;54.97;;;26.52;;
73585;SDS011;61865;50.232;18.614;2022-12-16T03:28:42;53.28;;;26.25;;
73585;SDS011;61865;50.232;18.614;2022-12-16T03:31:12;55.45;;;26.83;;
73585;SDS011;61865;50.232;18.614;2022-12-16T03:33:40;56.40;;;27.23;;
73585;SDS011;61865;50.232;18.614;2022-12-16T03:36:08;49.33;;;26.08;;
73585;SDS011;61865;50.232;18.614;2022-12-16T03:38:34;54.83;;;27.33;;
73585;SDS011;61865;50.232;18.614;2022-12-16T03:40:59;55.85;;;26.90;;
73585;SDS011;61865;50.232;18.614;2022-12-16T03:43:23;50.35;;;25.30;;
73585;SDS011;61865;50.232;18.614;2022-12-16T03:45:45;48.92;;;25.08;;
73585;SDS011;61865;50.232;18.614;2022-12-16T03:48:14;58.28;;;27.38;;
73585;SDS011;61865;50.232;18.614;2022-12-16T03:50:38;51.60;;;25.42;;
73585;SDS011;61865;50.232;18.614;2022-12-16T03:53:00;47.17;;;25.65;;
73585;SDS011;61865;50.232;18.614;2022-12-16T03:55:22;52.15;;;26.83;;
73585;SDS011;61865;50.232;18.614;2022-12-16T03:57:46;56.03;;;26.10;;
73585;SDS011;61865;50.232;18.614;2022-12-16T04:00:08;43.58;;;24.75;;
73585;SDS011;61865;50.232;18.614;2022-12-16T04:02:31;51.53;;;26.45;;
73585;SDS011;61865;50.232;18.614;2022-12-16T04:04:53;49.60;;;25.58;;
73585;SDS011;61865;50.232;18.614;2022-12-16T04:07:14;48.80;;;24.38;;
73585;SDS011;61865;50.232;18.614;2022-12-16T04:09:43;48.05;;;25.65;;
73585;SDS011;61865;50.232;18.614;2022-12-16T04:12:06;46.35;;;23.85;;
73585;SDS011;61865;50.232;18.614;2022-12-16T04:14:47;52.45;;;26.25;;
73585;SDS011;61865;50.232;18.614;2022-12-16T04:17:27;51.20;;;25.55;;
73585;SDS011;61865;50.232;18.614;2022-12-16T04:20:08;47.75;;;24.25;;
73585;SDS011;61865;50.232;18.614;2022-12-16T04:22:52;50.47;;;25.30;;
73585;SDS011;61865;50.232;18.614;2022-12-16T04:25:43;50.47;;;25.15;;
73585;SDS011;61865;50.232;18.614;2022-12-16T04:28:05;47.17;;;24.52;;
73585;SDS011;61865;50.232;18.614;2022-12-16T04:30:29;51.00;;;26.35;;
73585;SDS011;61865;50.232;18.614;2022-12-16T04:32:56;46.25;;;26.00;;
73585;SDS011;61865;50.232;18.614;2022-12-16T04:35:38;50.70;;;28.13;;
73585;SDS011;61865;50.232;18.614;2022-12-16T04:38:18;49.58;;;27.50;;
73585;SDS011;61865;50.232;18.614;2022-12-16T04:40:57;62.70;;;29.25;;
73585;SDS011;61865;50.232;18.614;2022-12-16T04:43:36;61.38;;;30.45;;
73585;SDS011;61865;50.232;18.614;2022-12-16T04:46:17;62.95;;;30.23;;
73585;SDS011;61865;50.232;18.614;2022-12-16T04:48:57;58.20;;;32.42;;
73585;SDS011;61865;50.232;18.614;2022-12-16T04:51:36;60.40;;;30.17;;
73585;SDS011;61865;50.232;18.614;2022-12-16T04:54:15;54.45;;;28.98;;
73585;SDS011;61865;50.232;18.614;2022-12-16T04:56:54;49.75;;;27.75;;
73585;SDS011;61865;50.232;18.614;2022-12-16T04:59:33;57.17;;;28.38;;
73585;SDS011;61865;50.232;18.614;2022-12-16T05:02:14;55.40;;;26.75;;
73585;SDS011;61865;50.232;18.614;2022-12-16T05:04:53;52.20;;;27.27;;
73585;SDS011;61865;50.232;18.614;2022-12-16T05:07:32;52.53;;;25.40;;
73585;SDS011;61865;50.232;18.614;2022-12-16T05:10:11;50.58;;;25.25;;
73585;SDS011;61865;50.232;18.614;2022-12-16T05:12:51;42.88;;;25.33;;
73585;SDS011;61865;50.232;18.614;2022-12-16T05:15:30;57.97;;;27.33;;
73585;SDS011;61865;50.232;18.614;2022-12-16T05:18:11;55.45;;;28.60;;
73585;SDS011;61865;50.232;18.614;2022-12-16T05:23:30;56.20;;;27.63;;
73585;SDS011;61865;50.232;18.614;2022-12-16T05:26:09;56.33;;;29.73;;
73585;SDS011;61865;50.232;18.614;2022-12-16T05:28:48;62.58;;;30.35;;
73585;SDS011;61865;50.232;18.614;2022-12-16T05:31:28;56.17;;;30.30;;
73585;SDS011;61865;50.232;18.614;2022-12-16T05:34:08;63.10;;;31.63;;
73585;SDS011;61865;50.232;18.614;2022-12-16T05:36:47;67.78;;;33.38;;
73585;SDS011;61865;50.232;18.614;2022-12-16T05:39:27;63.78;;;32.85;;
73585;SDS011;61865;50.232;18.614;2022-12-16T05:42:06;63.38;;;32.17;;
73585;SDS011;61865;50.232;18.614;2022-12-16T05:44:45;57.65;;;29.35;;
73585;SDS011;61865;50.232;18.614;2022-12-16T05:47:25;54.13;;;30.50;;
73585;SDS011;61865;50.232;18.614;2022-12-16T05:50:06;61.22;;;28.55;;
73585;SDS011;61865;50.232;18.614;2022-12-16T05:52:49;63.88;;;29.60;;
73585;SDS011;61865;50.232;18.614;2022-12-16T05:55:28;50.40;;;28.73;;
73585;SDS011;61865;50.232;18.614;2022-12-16T05:58:08;55.95;;;27.77;;
73585;SDS011;61865;50.232;18.614;2022-12-16T06:00:48;51.47;;;26.60;;
73585;SDS011;61865;50.232;18.614;2022-12-16T06:03:27;43.13;;;24.63;;
73585;SDS011;61865;50.232;18.614;2022-12-16T06:06:07;40.22;;;23.50;;
73585;SDS011;61865;50.232;18.614;2022-12-16T06:08:47;46.70;;;23.03;;
73585;SDS011;61865;50.232;18.614;2022-12-16T06:11:26;43.42;;;23.65;;
73585;SDS011;61865;50.232;18.614;2022-12-16T06:14:05;41.80;;;24.02;;
73585;SDS011;61865;50.232;18.614;2022-12-16T06:16:44;38.63;;;21.25;;
73585;SDS011;61865;50.232;18.614;2022-12-16T06:19:24;43.20;;;23.35;;
73585;SDS011;61865;50.232;18.614;2022-12-16T06:22:04;38.17;;;21.35;;
73585;SDS011;61865;50.232;18.614;2022-12-16T06:24:44;42.83;;;21.88;;
73585;SDS011;61865;50.232;18.614;2022-12-16T06:27:23;39.78;;;23.10;;
73585;SDS011;61865;50.232;18.614;2022-12-16T06:30:02;46.63;;;23.13;;
73585;SDS011;61865;50.232;18.614;2022-12-16T06:32:42;44.58;;;22.02;;
73585;SDS011;61865;50.232;18.614;2022-12-16T06:35:21;41.40;;;22.80;;
73585;SDS011;61865;50.232;18.614;2022-12-16T06:38:01;46.58;;;24.40;;
73585;SDS011;61865;50.232;18.614;2022-12-16T06:40:41;40.60;;;23.52;;
73585;SDS011;61865;50.232;18.614;2022-12-16T06:43:20;41.03;;;23.00;;
73585;SDS011;61865;50.232;18.614;2022-12-16T06:45:59;40.00;;;20.98;;
73585;SDS011;61865;50.232;18.614;2022-12-16T06:48:38;40.45;;;23.23;;
73585;SDS011;61865;50.232;18.614;2022-12-16T06:51:17;43.63;;;21.90;;
73585;SDS011;61865;50.232;18.614;2022-12-16T06:53:58;34.95;;;20.05;;
73585;SDS011;61865;50.232;18.614;2022-12-16T06:56:37;37.40;;;22.20;;
73585;SDS011;61865;50.232;18.614;2022-12-16T06:59:17;36.63;;;21.30;;
73585;SDS011;61865;50.232;18.614;2022-12-16T07:01:56;37.40;;;20.88;;
73585;SDS011;61865;50.232;18.614;2022-12-16T07:04:35;32.13;;;19.83;;
73585;SDS011;61865;50.232;18.614;2022-12-16T07:07:14;35.78;;;20.92;;
73585;SDS011;61865;50.232;18.614;2022-12-16T07:09:55;36.42;;;21.50;;
73585;SDS011;61865;50.232;18.614;2022-12-16T07:12:34;39.07;;;20.77;;
73585;SDS011;61865;50.232;18.614;2022-12-16T07:15:13;39.80;;;20.73;;
73585;SDS011;61865;50.232;18.614;2022-12-16T07:17:53;34.13;;;20.80;;
73585;SDS011;61865;50.232;18.614;2022-12-16T07:20:32;40.33;;;21.00;;
73585;SDS011;61865;50.232;18.614;2022-12-16T07:23:11;39.60;;;20.95;;
73585;SDS011;61865;50.232;18.614;2022-12-16T07:25:52;35.05;;;19.75;;
73585;SDS011;61865;50.232;18.614;2022-12-16T07:28:31;39.10;;;21.20;;
73585;SDS011;61865;50.232;18.614;2022-12-16T07:31:10;32.20;;;19.13;;
73585;SDS011;61865;50.232;18.614;2022-12-16T07:33:49;34.95;;;21.02;;
73585;SDS011;61865;50.232;18.614;2022-12-16T07:36:43;34.83;;;20.83;;
73585;SDS011;61865;50.232;18.614;2022-12-16T07:39:22;42.03;;;22.85;;
73585;SDS011;61865;50.232;18.614;2022-12-16T07:42:03;37.97;;;22.13;;
73585;SDS011;61865;50.232;18.614;2022-12-16T07:44:43;41.63;;;22.23;;
73585;SDS011;61865;50.232;18.614;2022-12-16T07:47:22;47.00;;;22.40;;
73585;SDS011;61865;50.232;18.614;2022-12-16T07:50:01;40.30;;;22.33;;
73585;SDS011;61865;50.232;18.614;2022-12-16T07:52:40;38.33;;;21.13;;
73585;SDS011;61865;50.232;18.614;2022-12-16T07:55:19;37.42;;;20.90;;
73585;SDS011;61865;50.232;18.614;2022-12-16T07:58:00;40.53;;;23.77;;
73585;SDS011;61865;50.232;18.614;2022-12-16T08:00:39;43.93;;;22.73;;
73585;SDS011;61865;50.232;18.614;2022-12-16T08:03:18;37.28;;;22.98;;
73585;SDS011;61865;50.232;18.614;2022-12-16T08:05:58;42.00;;;21.33;;
73585;SDS011;61865;50.232;18.614;2022-12-16T08:08:33;43.88;;;23.92;;
73585;SDS011;61865;50.232;18.614;2022-12-16T08:11:21;40.78;;;21.83;;
73585;SDS011;61865;50.232;18.614;2022-12-16T08:14:02;40.42;;;23.38;;
73585;SDS011;61865;50.232;18.614;2022-12-16T08:16:41;41.72;;;22.55;;
73585;SDS011;61865;50.232;18.614;2022-12-16T08:19:20;41.15;;;22.05;;
73585;SDS011;61865;50.232;18.614;2022-12-16T08:22:00;35.10;;;21.35;;
73585;SDS011;61865;50.232;18.614;2022-12-16T08:24:39;46.35;;;23.55;;
73585;SDS011;61865;50.232;18.614;2022-12-16T08:27:18;43.70;;;24.42;;
73585;SDS011;61865;50.232;18.614;2022-12-16T08:29:59;42.85;;;22.75;;
73585;SDS011;61865;50.232;18.614;2022-12-16T08:32:38;57.28;;;27.27;;
73585;SDS011;61865;50.232;18.614;2022-12-16T08:35:18;48.80;;;25.40;;
73585;SDS011;61865;50.232;18.614;2022-12-16T08:37:57;57.65;;;28.55;;
73585;SDS011;61865;50.232;18.614;2022-12-16T08:40:36;51.10;;;28.75;;
73585;SDS011;61865;50.232;18.614;2022-12-16T08:43:15;50.50;;;26.92;;
73585;SDS011;61865;50.232;18.614;2022-12-16T08:45:56;45.92;;;26.60;;
73585;SDS011;61865;50.232;18.614;2022-12-16T08:48:35;51.10;;;26.40;;
73585;SDS011;61865;50.232;18.614;2022-12-16T08:51:14;43.97;;;23.30;;
73585;SDS011;61865;50.232;18.614;2022-12-16T08:53:53;40.75;;;23.73;;
73585;SDS011;61865;50.232;18.614;2022-12-16T08:56:32;47.65;;;24.20;;
73585;SDS011;61865;50.232;18.614;2022-12-16T08:59:12;43.17;;;24.77;;
73585;SDS011;61865;50.232;18.614;2022-12-16T09:01:52;46.13;;;26.50;;
73585;SDS011;61865;50.232;18.614;2022-12-16T09:04:32;52.97;;;26.02;;
73585;SDS011;61865;50.232;18.614;2022-12-16T09:07:11;54.50;;;25.23;;
73585;SDS011;61865;50.232;18.614;2022-12-16T09:09:51;44.85;;;23.42;;
73585;SDS011;61865;50.232;18.614;2022-12-16T09:12:30;51.10;;;25.83;;
73585;SDS011;61865;50.232;18.614;2022-12-16T09:15:09;52.15;;;25.38;;
73585;SDS011;61865;50.232;18.614;2022-12-16T09:17:53;41.83;;;23.10;;
73585;SDS011;61865;50.232;18.614;2022-12-16T09:20:33;46.30;;;24.95;;
73585;SDS011;61865;50.232;18.614;2022-12-16T09:23:12;42.25;;;22.98;;
73585;SDS011;61865;50.232;18.614;2022-12-16T09:25:51;43.85;;;23.92;;
73585;SDS011;61865;50.232;18.614;2022-12-16T09:28:30;38.83;;;23.23;;
73585;SDS011;61865;50.232;18.614;2022-12-16T09:31:09;37.67;;;22.15;;
73585;SDS011;61865;50.232;18.614;2022-12-16T09:33:50;44.05;;;25.25;;
73585;SDS011;61865;50.232;18.614;2022-12-16T09:36:29;41.22;;;23.10;;
73585;SDS011;61865;50.232;18.614;2022-12-16T09:39:08;39.65;;;23.08;;
73585;SDS011;61865;50.232;18.614;2022-12-16T09:41:50;42.95;;;23.67;;
73585;SDS011;61865;50.232;18.614;2022-12-16T09:44:41;48.22;;;25.25;;
73585;SDS011;61865;50.232;18.614;2022-12-16T09:47:32;37.97;;;22.50;;
73585;SDS011;61865;50.232;18.614;2022-12-16T09:50:19;43.13;;;24.45;;
73585;SDS011;61865;50.232;18.614;2022-12-16T09:53:02;38.95;;;22.23;;
73585;SDS011;61865;50.232;18.614;2022-12-16T09:55:44;40.42;;;23.48;;
73585;SDS011;61865;50.232;18.614;2022-12-16T09:58:25;50.03;;;26.10;;
73585;SDS011;61865;50.232;18.614;2022-12-16T10:01:08;48.47;;;23.92;;
73585;SDS011;61865;50.232;18.614;2022-12-16T10:03:50;47.88;;;23.92;;
73585;SDS011;61865;50.232;18.614;2022-12-16T10:06:32;46.05;;;25.35;;
73585;SDS011;61865;50.232;18.614;2022-12-16T10:09:18;47.28;;;25.05;;
73585;SDS011;61865;50.232;18.614;2022-12-16T10:12:05;53.47;;;25.33;;
73585;SDS011;61865;50.232;18.614;2022-12-16T10:14:54;44.75;;;23.35;;
73585;SDS011;61865;50.232;18.614;2022-12-16T10:17:40;45.40;;;22.35;;
73585;SDS011;61865;50.232;18.614;2022-12-16T10:20:27;39.83;;;21.60;;
73585;SDS011;61865;50.232;18.614;2022-12-16T10:23:14;44.25;;;20.95;;
73585;SDS011;61865;50.232;18.614;2022-12-16T10:26:01;39.35;;;22.80;;
73585;SDS011;61865;50.232;18.614;2022-12-16T10:28:46;46.15;;;24.13;;
73585;SDS011;61865;50.232;18.614;2022-12-16T10:31:26;47.78;;;26.73;;
73585;SDS011;61865;50.232;18.614;2022-12-16T10:34:08;41.05;;;24.38;;
73585;SDS011;61865;50.232;18.614;2022-12-16T10:36:51;38.63;;;24.52;;
73585;SDS011;61865;50.232;18.614;2022-12-16T10:39:32;53.78;;;24.90;;
73585;SDS011;61865;50.232;18.614;2022-12-16T10:42:16;46.13;;;21.63;;
73585;SDS011;61865;50.232;18.614;2022-12-16T10:45:00;37.25;;;21.77;;
73585;SDS011;61865;50.232;18.614;2022-12-16T10:47:40;43.20;;;22.77;;
73585;SDS011;61865;50.232;18.614;2022-12-16T10:50:20;38.38;;;21.75;;
73585;SDS011;61865;50.232;18.614;2022-12-16T10:53:00;45.50;;;24.13;;
73585;SDS011;61865;50.232;18.614;2022-12-16T10:55:46;46.35;;;23.10;;
73585;SDS011;61865;50.232;18.614;2022-12-16T10:58:35;47.15;;;24.95;;
73585;SDS011;61865;50.232;18.614;2022-12-16T11:01:22;40.83;;;23.60;;
73585;SDS011;61865;50.232;18.614;2022-12-16T11:04:04;45.45;;;24.52;;
73585;SDS011;61865;50.232;18.614;2022-12-16T11:07:10;38.90;;;19.90;;
73585;SDS011;61865;50.232;18.614;2022-12-16T11:10:17;43.38;;;23.88;;
73585;SDS011;61865;50.232;18.614;2022-12-16T11:13:17;40.90;;;24.30;;
73585;SDS011;61865;50.232;18.614;2022-12-16T11:16:06;40.17;;;22.60;;
73585;SDS011;61865;50.232;18.614;2022-12-16T11:18:48;44.03;;;23.42;;
73585;SDS011;61865;50.232;18.614;2022-12-16T11:21:27;41.03;;;21.70;;
73585;SDS011;61865;50.232;18.614;2022-12-16T11:24:11;43.00;;;23.15;;
73585;SDS011;61865;50.232;18.614;2022-12-16T11:26:53;41.53;;;23.50;;
73585;SDS011;61865;50.232;18.614;2022-12-16T11:29:34;50.40;;;24.10;;
73585;SDS011;61865;50.232;18.614;2022-12-16T11:32:36;42.15;;;21.95;;
73585;SDS011;61865;50.232;18.614;2022-12-16T11:35:17;48.63;;;25.60;;
73585;SDS011;61865;50.232;18.614;2022-12-16T11:38:00;52.65;;;26.92;;
73585;SDS011;61865;50.232;18.614;2022-12-16T11:43:21;73.05;;;28.00;;
73585;SDS011;61865;50.232;18.614;2022-12-16T11:46:05;48.47;;;24.85;;
73585;SDS011;61865;50.232;18.614;2022-12-16T11:49:05;65.80;;;28.77;;
73585;SDS011;61865;50.232;18.614;2022-12-16T11:51:53;47.25;;;24.02;;
73585;SDS011;61865;50.232;18.614;2022-12-16T11:54:34;47.83;;;24.60;;
73585;SDS011;61865;50.232;18.614;2022-12-16T11:57:17;52.45;;;27.70;;
73585;SDS011;61865;50.232;18.614;2022-12-16T12:00:00;41.40;;;22.20;;
73585;SDS011;61865;50.232;18.614;2022-12-16T12:02:42;41.83;;;22.05;;
73585;SDS011;61865;50.232;18.614;2022-12-16T12:05:27;35.83;;;20.73;;
73585;SDS011;61865;50.232;18.614;2022-12-16T12:08:11;48.17;;;21.25;;
73585;SDS011;61865;50.232;18.614;2022-12-16T12:11:02;41.97;;;22.45;;
73585;SDS011;61865;50.232;18.614;2022-12-16T12:13:54;43.10;;;22.83;;
73585;SDS011;61865;50.232;18.614;2022-12-16T12:16:55;36.25;;;21.70;;
73585;SDS011;61865;50.232;18.614;2022-12-16T12:19:46;46.80;;;21.88;;
73585;SDS011;61865;50.232;18.614;2022-12-16T12:22:32;42.20;;;22.88;;
73585;SDS011;61865;50.232;18.614;2022-12-16T12:25:27;46.90;;;24.52;;
73585;SDS011;61865;50.232;18.614;2022-12-16T12:28:22;41.08;;;22.80;;
73585;SDS011;61865;50.232;18.614;2022-12-16T12:31:19;48.55;;;23.27;;
73585;SDS011;61865;50.232;18.614;2022-12-16T12:34:09;40.00;;;22.67;;
73585;SDS011;61865;50.232;18.614;2022-12-16T12:36:58;43.60;;;24.10;;
73585;SDS011;61865;50.232;18.614;2022-12-16T12:39:46;44.95;;;24.17;;
73585;SDS011;61865;50.232;18.614;2022-12-16T12:42:33;45.30;;;25.45;;
73585;SDS011;61865;50.232;18.614;2022-12-16T12:45:29;45.35;;;24.60;;
73585;SDS011;61865;50.232;18.614;2022-12-16T12:48:23;51.78;;;25.27;;
73585;SDS011;61865;50.232;18.614;2022-12-16T12:51:10;44.72;;;24.65;;
73585;SDS011;61865;50.232;18.614;2022-12-16T12:53:57;39.75;;;24.73;;
73585;SDS011;61865;50.232;18.614;2022-12-16T12:56:46;52.95;;;26.77;;
73585;SDS011;61865;50.232;18.614;2022-12-16T12:59:28;56.88;;;27.15;;
73585;SDS011;61865;50.232;18.614;2022-12-16T13:05:01;52.47;;;26.88;;
73585;SDS011;61865;50.232;18.614;2022-12-16T13:07:41;52.95;;;28.27;;
73585;SDS011;61865;50.232;18.614;2022-12-16T13:10:32;65.88;;;28.90;;
73585;SDS011;61865;50.232;18.614;2022-12-16T13:13:24;53.80;;;27.40;;
73585;SDS011;61865;50.232;18.614;2022-12-16T13:16:09;41.70;;;27.45;;
73585;SDS011;61865;50.232;18.614;2022-12-16T13:18:51;55.80;;;30.60;;
73585;SDS011;61865;50.232;18.614;2022-12-16T13:22:23;54.25;;;30.10;;
73585;SDS011;61865;50.232;18.614;2022-12-16T13:25:09;48.90;;;27.23;;
73585;SDS011;61865;50.232;18.614;2022-12-16T13:28:27;59.55;;;29.60;;
73585;SDS011;61865;50.232;18.614;2022-12-16T13:31:10;59.47;;;30.95;;
73585;SDS011;61865;50.232;18.614;2022-12-16T13:33:50;65.32;;;32.78;;
73585;SDS011;61865;50.232;18.614;2022-12-16T13:36:32;64.57;;;33.22;;
73585;SDS011;61865;50.232;18.614;2022-12-16T13:42:02;60.70;;;30.42;;
73585;SDS011;61865;50.232;18.614;2022-12-16T13:44:54;59.47;;;31.25;;
73585;SDS011;61865;50.232;18.614;2022-12-16T13:50:38;58.92;;;31.25;;
73585;SDS011;61865;50.232;18.614;2022-12-16T13:53:19;64.88;;;31.90;;
73585;SDS011;61865;50.232;18.614;2022-12-16T13:56:00;68.68;;;33.67;;
73585;SDS011;61865;50.232;18.614;2022-12-16T13:58:48;75.07;;;35.60;;
73585;SDS011;61865;50.232;18.614;2022-12-16T14:01:32;58.58;;;31.90;;
73585;SDS011;61865;50.232;18.614;2022-12-16T14:04:18;64.15;;;32.78;;
73585;SDS011;61865;50.232;18.614;2022-12-16T14:07:03;62.22;;;34.97;;
73585;SDS011;61865;50.232;18.614;2022-12-16T14:09:42;70.05;;;33.38;;
73585;SDS011;61865;50.232;18.614;2022-12-16T14:12:32;64.20;;;34.22;;
73585;SDS011;61865;50.232;18.614;2022-12-16T14:15:45;66.18;;;35.00;;
73585;SDS011;61865;50.232;18.614;2022-12-16T14:18:40;65.53;;;34.65;;
73585;SDS011;61865;50.232;18.614;2022-12-16T14:21:26;76.85;;;39.13;;
73585;SDS011;61865;50.232;18.614;2022-12-16T14:24:11;75.15;;;38.50;;
73585;SDS011;61865;50.232;18.614;2022-12-16T14:26:58;91.03;;;42.30;;
73585;SDS011;61865;50.232;18.614;2022-12-16T14:29:43;66.60;;;36.60;;
73585;SDS011;61865;50.232;18.614;2022-12-16T14:32:25;68.53;;;34.10;;
73585;SDS011;61865;50.232;18.614;2022-12-16T14:35:10;74.97;;;34.63;;
73585;SDS011;61865;50.232;18.614;2022-12-16T14:37:51;73.65;;;34.97;;
73585;SDS011;61865;50.232;18.614;2022-12-16T14:40:31;63.63;;;34.88;;
73585;SDS011;61865;50.232;18.614;2022-12-16T14:43:11;69.25;;;36.05;;
73585;SDS011;61865;50.232;18.614;2022-12-16T14:45:52;64.78;;;33.45;;
73585;SDS011;61865;50.232;18.614;2022-12-16T14:48:44;72.90;;;33.00;;
73585;SDS011;61865;50.232;18.614;2022-12-16T14:51:27;68.57;;;33.42;;
73585;SDS011;61865;50.232;18.614;2022-12-16T14:54:13;60.83;;;31.95;;
73585;SDS011;61865;50.232;18.614;2022-12-16T14:57:02;53.45;;;31.67;;
73585;SDS011;61865;50.232;18.614;2022-12-16T14:59:42;66.50;;;34.35;;
73585;SDS011;61865;50.232;18.614;2022-12-16T15:02:29;72.05;;;35.60;;
73585;SDS011;61865;50.232;18.614;2022-12-16T15:05:10;75.55;;;38.60;;
73585;SDS011;61865;50.232;18.614;2022-12-16T15:07:51;82.78;;;38.40;;
73585;SDS011;61865;50.232;18.614;2022-12-16T15:10:31;76.13;;;38.28;;
73585;SDS011;61865;50.232;18.614;2022-12-16T15:13:13;66.78;;;33.92;;
73585;SDS011;61865;50.232;18.614;2022-12-16T15:15:54;74.05;;;37.22;;
73585;SDS011;61865;50.232;18.614;2022-12-16T15:18:34;65.25;;;33.67;;
73585;SDS011;61865;50.232;18.614;2022-12-16T15:21:16;65.57;;;33.10;;
73585;SDS011;61865;50.232;18.614;2022-12-16T15:23:57;66.20;;;35.75;;
73585;SDS011;61865;50.232;18.614;2022-12-16T15:26:37;69.57;;;36.08;;
73585;SDS011;61865;50.232;18.614;2022-12-16T15:29:25;76.97;;;34.30;;
73585;SDS011;61865;50.232;18.614;2022-12-16T15:35:05;70.15;;;36.53;;